KORL/ORL METAR and TAF weather

Enter ICAO airport designator
Station Type Date Time Source
KORL METAR 2019/10/22 16:53 UTC NOAA

KORL 221653Z 21011KT 10SM CLR 32/22 A2997 RMK AO2 SLP150 T03170222 $


Station Type Date Time Source
KORL Decoded METAR 2019/10/22 16:53 UTC NOAA

ORLANDO EXECUTIVE AIRPORT, FL, United States (KORL) 28-33N 081-20W 37M
Oct 22, 2019 - 12:53 PM EDT / 2019.10.22 1653 UTC
Wind: from the SSW (210 degrees) at 13 MPH (11 KT):0
Visibility: 10 mile(s):0
Sky conditions: clear
Temperature: 89.1 F (31.7 C)
Heat index: 96.1 F (35.6 C):1
Dew Point: 72.0 F (22.2 C)
Relative Humidity: 57%
Pressure (altimeter): 29.97 in. Hg (1014 hPa)
ob: KORL 221653Z 21011KT 10SM CLR 32/22 A2997 RMK AO2 SLP150 T03170222
cycle: 17

Station Type Date Time Source
KORL TAF UTC NOAA

Error!

Example: see airport list